createdAt,value
2022-08-16T00:00:38.804Z,7.666667
2022-08-16T00:05:17.325Z,7.000000
2022-08-16T00:10:20.771Z,8.466667
2022-08-16T00:15:22.139Z,9.000000
2022-08-16T00:20:24.917Z,8.333333
2022-08-16T00:26:33.720Z,8.000000
2022-08-16T00:26:37.427Z,8.000000
2022-08-16T00:30:30.274Z,8.666667
2022-08-16T00:35:32.565Z,9.000000
2022-08-16T00:40:36.812Z,8.333333
2022-08-16T00:45:16.755Z,8.000000
2022-08-16T00:50:18.922Z,8.733333
2022-08-16T00:55:22.043Z,9.000000
2022-08-16T01:00:23.889Z,9.000000
2022-08-16T01:05:25.413Z,9.000000
2022-08-16T01:10:32.735Z,8.333333
2022-08-16T01:15:30.205Z,8.000000
2022-08-16T01:20:31.978Z,8.000000
2022-08-16T01:25:36.347Z,8.000000
2022-08-16T01:30:19.472Z,8.000000
2022-08-16T01:35:18.340Z,8.000000
2022-08-16T01:40:20.470Z,10.933333
2022-08-16T01:45:22.850Z,12.000000
2022-08-16T01:50:42.483Z,10.000000
2022-08-16T01:55:27.565Z,9.000000
2022-08-16T02:00:30.025Z,6.333333
2022-08-16T02:05:32.047Z,5.000000
2022-08-16T02:10:34.159Z,7.666667
2022-08-16T02:15:16.017Z,9.000000
2022-08-16T02:20:18.393Z,9.000000
2022-08-16T02:25:21.216Z,9.000000
2022-08-16T02:30:37.229Z,7.571429
2022-08-16T02:35:25.436Z,7.000000
2022-08-16T02:40:27.744Z,11.000000
2022-08-16T02:45:29.729Z,13.000000
2022-08-16T02:50:54.634Z,11.000000
2022-08-16T02:55:41.020Z,10.000000
2022-08-16T03:00:34.532Z,8.666667
2022-08-16T03:05:18.980Z,8.000000
2022-08-16T03:10:20.999Z,11.666667
2022-08-16T03:15:24.442Z,13.000000
2022-08-16T03:20:32.494Z,15.000000
2022-08-16T03:25:43.235Z,16.000000
2022-08-16T03:30:29.954Z,9.333333
2022-08-16T03:35:33.624Z,6.000000
2022-08-16T03:40:35.242Z,8.000000
2022-08-16T03:45:16.935Z,9.000000
2022-08-16T03:50:25.609Z,11.200000
2022-08-16T03:55:21.150Z,12.000000
2022-08-16T04:00:35.989Z,10.571429
2022-08-16T04:05:26.250Z,10.000000
2022-08-16T04:10:36.051Z,10.666667
2022-08-16T04:15:31.168Z,11.000000
2022-08-16T04:20:36.946Z,9.000000
2022-08-16T04:25:16.265Z,8.000000
2022-08-16T04:30:30.242Z,8.733333
2022-08-16T04:35:21.566Z,9.000000
2022-08-16T04:40:32.245Z,14.000000
2022-08-16T04:45:35.813Z,16.000000
2022-08-16T04:50:30.844Z,9.333333
2022-08-16T04:55:38.325Z,6.000000
2022-08-16T05:00:35.475Z,8.666667
2022-08-16T05:05:17.858Z,10.000000
2022-08-16T05:10:22.953Z,11.466667
2022-08-16T05:15:23.141Z,12.000000
2022-08-16T05:20:45.595Z,10.000000
2022-08-16T05:25:36.431Z,9.000000
2022-08-16T05:30:34.572Z,10.333333
2022-08-16T05:35:32.653Z,11.000000
2022-08-16T05:40:35.247Z,13.666667
2022-08-16T05:45:21.935Z,15.000000
2022-08-16T05:50:20.230Z,7.666667
2022-08-16T05:55:23.455Z,5.000000
2022-08-16T06:00:26.139Z,5.666667
2022-08-16T06:05:29.614Z,6.000000
2022-08-16T06:10:33.348Z,4.666667
2022-08-16T06:15:35.284Z,4.000000
2022-08-16T06:20:18.411Z,4.733333
2022-08-16T06:25:20.132Z,5.000000
2022-08-16T06:30:22.731Z,5.714286
2022-08-16T06:35:25.022Z,6.000000
2022-08-16T06:40:33.407Z,7.333333
2022-08-16T06:45:30.547Z,8.000000
2022-08-16T06:50:33.289Z,6.000000
2022-08-16T06:55:35.480Z,5.000000
2022-08-16T07:00:24.077Z,5.000000
2022-08-16T07:05:20.282Z,5.000000
2022-08-16T07:10:25.571Z,6.428571
2022-08-16T07:15:25.218Z,7.000000
2022-08-16T07:20:35.685Z,9.000000
2022-08-16T07:25:29.528Z,10.000000
2022-08-16T07:30:45.980Z,10.000000
2022-08-16T07:35:35.604Z,10.000000
2022-08-16T07:40:17.610Z,7.066667
2022-08-16T07:45:20.227Z,6.000000
2022-08-16T07:50:58.402Z,7.428571
2022-08-16T07:55:24.939Z,8.000000
2022-08-16T08:00:27.560Z,12.000000
2022-08-16T08:05:35.439Z,14.000000
2022-08-16T08:10:32.679Z,11.333333
2022-08-16T08:15:37.150Z,10.000000
2022-08-16T08:20:20.657Z,7.800000
2022-08-16T08:25:20.778Z,7.000000
2022-08-16T08:30:51.359Z,8.428571
2022-08-16T08:35:27.191Z,9.000000
2022-08-16T08:40:28.933Z,10.333333
2022-08-16T08:45:48.757Z,11.000000
2022-08-16T08:50:33.619Z,8.333333
2022-08-16T08:55:15.991Z,7.000000
2022-08-16T09:00:21.401Z,11.400000
2022-08-16T09:05:22.204Z,13.000000
2022-08-16T09:10:23.387Z,10.857143
2022-08-16T09:15:25.687Z,10.000000
2022-08-16T09:20:27.842Z,16.000000
2022-08-16T09:25:33.894Z,19.000000
2022-08-16T09:30:34.578Z,15.000000
2022-08-16T09:35:37.519Z,13.000000
2022-08-16T09:40:32.675Z,14.466667
2022-08-16T09:45:19.943Z,15.000000
2022-08-16T09:50:23.283Z,15.000000
2022-08-16T09:55:25.486Z,15.000000
2022-08-16T10:00:44.168Z,17.000000
2022-08-16T10:05:31.143Z,18.000000
2022-08-16T10:10:34.361Z,18.666667
2022-08-16T10:15:17.131Z,19.000000
2022-08-16T10:20:18.944Z,13.866667
2022-08-16T10:27:03.666Z,12.000000
2022-08-16T10:27:17.755Z,12.000000
2022-08-16T10:27:46.156Z,12.000000
2022-08-16T10:30:25.808Z,13.428571
2022-08-16T10:35:32.856Z,14.000000
2022-08-16T10:40:30.557Z,13.333333
2022-08-16T10:45:37.066Z,13.000000
2022-08-16T10:50:34.581Z,13.666667
2022-08-16T10:55:57.425Z,14.000000
2022-08-16T11:00:21.122Z,14.000000
2022-08-16T11:05:22.340Z,14.000000
2022-08-16T11:11:06.351Z,14.000000
2022-08-16T11:15:27.543Z,14.000000
2022-08-16T11:20:41.289Z,12.666667
2022-08-16T11:26:16.445Z,12.000000
2022-08-16T11:30:39.145Z,13.333333
2022-08-16T11:35:18.515Z,14.000000
2022-08-16T11:40:20.885Z,15.466667
2022-08-16T11:45:23.463Z,16.000000
2022-08-16T11:50:26.231Z,15.333333
2022-08-16T11:55:29.203Z,15.000000
2022-08-16T12:00:50.798Z,11.666667
2022-08-16T12:05:34.231Z,10.000000
2022-08-16T12:10:16.997Z,12.000000
2022-08-16T12:15:20.814Z,13.000000
2022-08-16T12:20:23.776Z,13.714286
2022-08-16T12:25:26.738Z,14.000000
2022-08-16T12:30:32.257Z,15.333333
2022-08-16T12:35:32.296Z,16.000000
2022-08-16T12:40:35.126Z,12.666667
2022-08-16T12:45:17.348Z,11.000000
2022-08-16T12:50:20.215Z,11.000000
2022-08-16T12:55:23.097Z,11.000000
2022-08-16T13:00:26.383Z,9.000000
2022-08-16T13:05:28.013Z,8.000000
2022-08-16T13:10:36.746Z,10.000000
2022-08-16T13:15:36.280Z,11.000000
2022-08-16T13:20:16.736Z,10.333333
2022-08-16T13:25:20.699Z,10.000000
2022-08-16T13:30:36.080Z,5.000000
2022-08-16T13:35:25.843Z,3.000000
2022-08-16T13:40:28.289Z,7.666667
2022-08-16T13:45:36.240Z,10.000000
2022-08-16T13:50:49.101Z,8.000000
2022-08-16T13:55:36.268Z,7.000000
2022-08-16T14:00:19.457Z,7.733333
2022-08-16T14:05:21.931Z,8.000000
2022-08-16T14:10:23.632Z,7.285714
2022-08-16T14:15:26.234Z,7.000000
2022-08-16T14:20:28.253Z,7.666667
2022-08-16T14:25:30.681Z,8.000000
2022-08-16T14:30:33.222Z,6.666667
2022-08-16T14:35:49.397Z,6.000000
2022-08-16T14:40:18.915Z,6.000000
2022-08-16T14:45:21.286Z,6.000000
2022-08-16T14:50:23.852Z,8.857143
2022-08-16T14:55:26.434Z,10.000000
2022-08-16T15:00:33.958Z,9.333333
2022-08-16T15:05:37.589Z,9.000000
2022-08-16T15:10:34.315Z,9.000000
2022-08-16T15:15:16.847Z,9.000000
2022-08-16T15:20:19.652Z,10.466667
2022-08-16T15:25:22.383Z,11.000000
2022-08-16T15:30:57.176Z,9.000000
2022-08-16T15:35:27.352Z,8.000000
2022-08-16T15:40:35.298Z,9.333333
2022-08-16T15:45:33.182Z,10.000000
2022-08-16T15:50:36.000Z,10.666667
2022-08-16T15:55:23.991Z,11.000000
2022-08-16T16:00:20.937Z,9.533333
2022-08-16T16:05:23.468Z,9.000000
2022-08-16T16:10:29.875Z,10.333333
2022-08-16T16:15:29.511Z,11.000000
2022-08-16T16:20:31.046Z,7.666667
2022-08-16T16:25:32.816Z,6.000000
2022-08-16T16:30:44.729Z,5.333333
2022-08-16T16:35:17.882Z,5.000000
2022-08-16T16:40:23.982Z,5.000000
2022-08-16T16:45:22.525Z,5.000000
2022-08-16T16:50:24.658Z,5.000000
2022-08-16T16:55:27.537Z,5.000000
2022-08-16T17:00:37.591Z,5.000000
2022-08-16T17:05:32.377Z,5.000000
2022-08-16T17:10:46.873Z,8.333333
2022-08-16T17:15:16.627Z,10.000000
2022-08-16T17:20:19.111Z,8.533333
2022-08-16T17:25:21.951Z,8.000000
2022-08-16T17:30:29.422Z,10.142857
2022-08-16T17:35:34.253Z,11.000000
2022-08-16T17:40:46.957Z,9.000000
2022-08-16T17:45:31.731Z,8.000000
2022-08-16T17:50:34.884Z,6.000000
2022-08-16T17:55:17.125Z,5.000000
2022-08-16T18:00:20.607Z,7.200000
2022-08-16T18:05:22.835Z,8.000000
2022-08-16T18:10:33.267Z,8.666667
2022-08-16T18:15:28.085Z,9.000000
2022-08-16T18:20:30.155Z,8.333333
2022-08-16T18:25:32.399Z,8.000000
2022-08-16T18:30:34.551Z,9.333333
2022-08-16T18:35:16.897Z,10.000000
2022-08-16T18:40:19.733Z,8.533333
2022-08-16T18:45:21.811Z,8.000000
2022-08-16T18:50:24.352Z,8.000000
2022-08-16T18:55:27.131Z,8.000000
2022-08-16T19:00:29.578Z,8.666667
2022-08-16T19:05:31.684Z,9.000000
2022-08-16T19:10:34.238Z,9.000000
2022-08-16T19:15:16.411Z,9.000000
2022-08-16T19:20:19.174Z,6.066667
2022-08-16T19:25:21.660Z,5.000000
2022-08-16T19:30:24.321Z,8.571429
2022-08-16T19:35:26.703Z,10.000000
2022-08-16T19:40:37.472Z,8.666667
2022-08-16T19:45:32.106Z,8.000000
2022-08-16T19:50:35.807Z,8.000000
2022-08-16T19:55:20.640Z,8.000000
2022-08-16T20:00:19.404Z,9.466667
2022-08-16T20:05:22.071Z,10.000000
2022-08-16T20:10:25.088Z,8.571429
2022-08-16T20:15:27.531Z,8.000000
2022-08-16T20:20:30.386Z,8.000000
2022-08-16T20:25:32.984Z,8.000000
2022-08-16T20:30:35.366Z,8.000000
2022-08-16T20:35:17.861Z,8.000000
2022-08-16T20:40:34.272Z,8.000000
2022-08-16T20:45:22.376Z,8.000000
2022-08-16T20:50:24.799Z,8.000000
2022-08-16T20:55:28.865Z,8.000000
2022-08-16T21:00:30.444Z,7.333333
2022-08-16T21:05:32.897Z,7.000000
2022-08-16T21:10:35.571Z,7.666667
2022-08-16T21:15:18.065Z,8.000000
2022-08-16T21:20:20.732Z,10.933333
2022-08-16T21:25:23.590Z,12.000000
2022-08-16T21:30:31.083Z,8.666667
2022-08-16T21:35:28.783Z,7.000000
2022-08-16T21:40:31.635Z,7.666667
2022-08-16T21:45:34.170Z,8.000000
2022-08-16T21:50:16.466Z,7.333333
2022-08-16T21:55:19.125Z,7.000000
2022-08-16T22:00:21.603Z,7.733333
2022-08-16T22:05:24.241Z,8.000000
2022-08-16T22:11:04.406Z,8.000000
2022-08-16T22:15:29.048Z,8.000000
2022-08-16T22:20:31.447Z,7.333333
2022-08-16T22:25:34.250Z,7.000000
2022-08-16T22:30:16.549Z,9.666667
2022-08-16T22:35:19.106Z,11.000000
2022-08-16T22:40:21.311Z,8.066667
2022-08-16T22:45:24.097Z,7.000000
2022-08-16T22:50:26.193Z,7.000000
2022-08-16T22:55:28.446Z,7.000000
2022-08-16T23:00:31.122Z,7.666667
2022-08-16T23:05:33.250Z,8.000000
2022-08-16T23:10:35.476Z,8.000000
2022-08-16T23:15:17.267Z,8.000000
2022-08-16T23:20:20.058Z,18.266667
2022-08-16T23:25:22.779Z,22.000000
2022-08-16T23:30:25.341Z,14.000000
2022-08-16T23:35:27.632Z,10.000000
2022-08-16T23:40:29.955Z,8.666667
2022-08-16T23:45:32.401Z,8.000000
2022-08-16T23:50:34.977Z,8.000000
2022-08-16T23:55:17.151Z,8.000000
